createdAt,value
2022-08-20T00:00:50.236Z,47.62
2022-08-20T00:03:50.266Z,47.47
2022-08-20T00:06:45.371Z,47.34
2022-08-20T00:09:37.024Z,47.47
2022-08-20T00:12:28.587Z,47.53
2022-08-20T00:15:22.949Z,47.52
2022-08-20T00:18:14.905Z,47.47
2022-08-20T00:21:08.764Z,47.38
2022-08-20T00:24:00.591Z,47.25
2022-08-20T00:26:52.612Z,47.16
2022-08-20T00:29:43.724Z,47.18
2022-08-20T00:32:43.374Z,47.11
2022-08-20T00:35:37.826Z,47.11
2022-08-20T00:38:30.102Z,47.13
2022-08-20T00:41:24.239Z,47.22
2022-08-20T00:44:17.343Z,47.26
2022-08-20T00:47:09.333Z,47.25
2022-08-20T00:50:00.025Z,47.29
2022-08-20T00:52:54.435Z,47.27
2022-08-20T00:55:45.013Z,47.44
2022-08-20T00:58:37.509Z,47.50
2022-08-20T01:01:48.174Z,47.61
2022-08-20T01:04:48.496Z,47.75
2022-08-20T01:07:40.666Z,47.84
2022-08-20T01:10:35.346Z,47.82
2022-08-20T01:13:27.298Z,47.86
2022-08-20T01:16:29.598Z,47.71
2022-08-20T01:19:29.468Z,47.74
2022-08-20T01:22:58.367Z,47.83
2022-08-20T01:25:53.074Z,47.88
2022-08-20T01:28:49.298Z,47.91
2022-08-20T01:31:42.336Z,48.06
2022-08-20T01:34:33.551Z,48.07
2022-08-20T01:37:25.488Z,48.19
2022-08-20T01:40:35.109Z,48.35
2022-08-20T01:43:26.972Z,48.33
2022-08-20T01:46:18.271Z,48.28
2022-08-20T01:49:23.137Z,48.38
2022-08-20T01:52:32.819Z,48.53
2022-08-20T01:55:23.079Z,48.57
2022-08-20T01:58:16.712Z,48.56
2022-08-20T02:01:09.517Z,48.62
2022-08-20T02:04:03.267Z,48.91
2022-08-20T02:06:57.848Z,49.12
2022-08-20T02:09:49.652Z,49.37
2022-08-20T02:12:40.244Z,49.55
2022-08-20T02:15:37.336Z,49.65
2022-08-20T02:18:29.255Z,49.63
2022-08-20T02:21:19.861Z,49.79
2022-08-20T02:24:11.116Z,49.77
2022-08-20T02:27:02.878Z,49.79
2022-08-20T02:29:54.491Z,49.77
2022-08-20T02:32:45.519Z,50.01
2022-08-20T02:35:35.642Z,49.98
2022-08-20T02:38:26.775Z,49.89
2022-08-20T02:41:18.024Z,49.86
2022-08-20T02:44:09.800Z,49.99
2022-08-20T02:47:03.139Z,49.96
2022-08-20T02:49:59.781Z,49.89
2022-08-20T02:52:52.360Z,49.82
2022-08-20T02:55:43.270Z,49.77
2022-08-20T02:58:35.515Z,49.50
2022-08-20T03:01:28.910Z,49.38
2022-08-20T03:04:20.120Z,49.24
2022-08-20T03:07:15.399Z,49.15
2022-08-20T03:10:06.254Z,48.89
2022-08-20T03:12:57.481Z,48.85
2022-08-20T03:15:57.923Z,48.74
2022-08-20T03:18:52.136Z,48.55
2022-08-20T03:21:43.659Z,48.59
2022-08-20T03:24:36.971Z,48.53
2022-08-20T03:27:29.989Z,48.28
2022-08-20T03:30:29.399Z,48.52
2022-08-20T03:33:21.735Z,48.60
2022-08-20T03:36:12.691Z,48.62
2022-08-20T03:39:13.456Z,48.62
2022-08-20T03:42:03.947Z,48.70
2022-08-20T03:44:58.921Z,48.52
2022-08-20T03:47:51.884Z,48.35
2022-08-20T03:50:44.396Z,48.02
2022-08-20T03:53:35.981Z,47.71
2022-08-20T03:56:27.509Z,47.82
2022-08-20T03:59:18.162Z,47.86
2022-08-20T04:02:11.622Z,47.80
2022-08-20T04:05:02.272Z,47.74
2022-08-20T04:07:52.524Z,47.94
2022-08-20T04:10:45.634Z,47.88
2022-08-20T04:13:38.994Z,48.00
2022-08-20T04:16:33.473Z,48.07
2022-08-20T04:19:23.703Z,48.29
2022-08-20T04:22:15.190Z,48.76
2022-08-20T04:25:06.368Z,48.95
2022-08-20T04:27:58.794Z,49.11
2022-08-20T04:30:51.985Z,49.34
2022-08-20T04:33:44.157Z,49.24
2022-08-20T04:36:35.234Z,49.13
2022-08-20T04:39:25.732Z,49.19
2022-08-20T04:42:15.755Z,49.17
2022-08-20T04:45:08.677Z,48.82
2022-08-20T04:48:00.094Z,48.53
2022-08-20T04:50:52.609Z,48.38
2022-08-20T04:53:43.484Z,48.27
2022-08-20T04:56:43.169Z,48.07
2022-08-20T04:59:33.035Z,48.11
2022-08-20T05:02:24.893Z,48.20
2022-08-20T05:05:17.782Z,48.11
2022-08-20T05:08:18.769Z,48.19
2022-08-20T05:11:34.052Z,48.16
2022-08-20T05:14:28.026Z,48.24
2022-08-20T05:17:19.701Z,48.32
2022-08-20T05:20:13.899Z,48.42
2022-08-20T05:23:04.424Z,48.67
2022-08-20T05:25:58.286Z,48.86
2022-08-20T05:28:57.587Z,48.88
2022-08-20T05:31:49.118Z,48.97
2022-08-20T05:34:39.044Z,49.14
2022-08-20T05:37:30.122Z,49.26
2022-08-20T05:40:23.884Z,49.49
2022-08-20T05:43:14.177Z,49.57
2022-08-20T05:46:05.591Z,49.84
2022-08-20T05:48:59.471Z,49.92
2022-08-20T05:51:51.372Z,49.95
2022-08-20T05:54:42.191Z,49.99
2022-08-20T05:57:32.499Z,50.15
2022-08-20T06:00:22.351Z,50.28
2022-08-20T06:03:30.129Z,50.38
2022-08-20T06:06:45.689Z,50.45
2022-08-20T06:09:32.769Z,50.51
2022-08-20T06:12:23.917Z,50.32
2022-08-20T06:15:15.237Z,50.07
2022-08-20T06:18:27.808Z,49.84
2022-08-20T06:21:24.679Z,49.80
2022-08-20T06:24:15.155Z,49.66
2022-08-20T06:27:07.455Z,49.55
2022-08-20T06:29:58.993Z,49.64
2022-08-20T06:32:51.374Z,49.67
2022-08-20T06:35:46.187Z,49.80
2022-08-20T06:38:38.616Z,49.84
2022-08-20T06:41:36.020Z,49.93
2022-08-20T06:44:28.830Z,50.04
2022-08-20T06:47:21.477Z,50.12
2022-08-20T06:50:14.656Z,50.25
2022-08-20T06:53:07.320Z,50.26
2022-08-20T06:55:59.651Z,50.07
2022-08-20T06:58:49.759Z,50.00
2022-08-20T07:01:39.582Z,50.01
2022-08-20T07:04:29.816Z,49.93
2022-08-20T07:07:20.966Z,49.87
2022-08-20T07:10:14.746Z,49.92
2022-08-20T07:13:06.508Z,49.74
2022-08-20T07:15:56.582Z,49.44
2022-08-20T07:18:48.142Z,49.75
2022-08-20T07:21:39.219Z,49.93
2022-08-20T07:24:33.324Z,49.78
2022-08-20T07:27:25.584Z,49.82
2022-08-20T07:30:55.801Z,49.60
2022-08-20T07:33:47.462Z,49.70
2022-08-20T07:36:41.502Z,49.44
2022-08-20T07:39:32.452Z,49.67
2022-08-20T07:42:23.019Z,49.62
2022-08-20T07:45:18.832Z,49.52
2022-08-20T07:48:27.896Z,49.44
2022-08-20T07:51:25.092Z,49.37
2022-08-20T07:54:15.165Z,49.48
2022-08-20T07:57:05.679Z,49.44
2022-08-20T08:00:00.397Z,49.40
2022-08-20T08:02:51.047Z,49.78
2022-08-20T08:05:46.774Z,49.70
2022-08-20T08:08:37.589Z,49.45
2022-08-20T08:11:29.871Z,49.37
2022-08-20T08:14:23.571Z,49.64
2022-08-20T08:17:15.621Z,49.89
2022-08-20T08:20:07.805Z,49.86
2022-08-20T08:23:00.797Z,49.71
2022-08-20T08:25:52.542Z,49.67
2022-08-20T08:28:47.118Z,49.09
2022-08-20T08:31:38.261Z,49.06
2022-08-20T08:34:32.560Z,49.24
2022-08-20T08:37:30.609Z,48.97
2022-08-20T08:40:21.442Z,48.94
2022-08-20T08:43:17.321Z,49.22
2022-08-20T08:46:14.433Z,49.06
2022-08-20T08:49:04.414Z,49.21
2022-08-20T08:52:00.462Z,49.05
2022-08-20T08:54:53.962Z,48.45
2022-08-20T08:57:43.781Z,48.18
2022-08-20T09:00:33.688Z,48.53
2022-08-20T09:03:39.974Z,47.80
2022-08-20T09:06:30.815Z,47.88
2022-08-20T09:09:26.360Z,48.35
2022-08-20T09:12:20.140Z,48.66
2022-08-20T09:15:11.085Z,48.90
2022-08-20T09:18:01.730Z,48.78
2022-08-20T09:20:52.929Z,48.37
2022-08-20T09:23:44.065Z,48.80
2022-08-20T09:26:39.159Z,49.13
2022-08-20T09:29:29.711Z,49.25
2022-08-20T09:32:23.652Z,49.28
2022-08-20T09:35:14.455Z,49.39
2022-08-20T09:38:04.138Z,49.55
2022-08-20T09:40:54.329Z,49.43
2022-08-20T09:43:44.560Z,49.85
2022-08-20T09:46:34.704Z,50.11
2022-08-20T09:49:25.131Z,50.09
2022-08-20T09:52:22.759Z,50.31
2022-08-20T09:55:21.465Z,50.20
2022-08-20T09:58:17.550Z,50.33
2022-08-20T10:01:13.862Z,49.97
2022-08-20T10:04:05.031Z,49.85
2022-08-20T10:06:56.101Z,49.49
2022-08-20T10:09:48.752Z,49.37
2022-08-20T10:12:41.642Z,49.42
2022-08-20T10:15:32.901Z,49.53
2022-08-20T10:18:22.784Z,49.69
2022-08-20T10:21:14.068Z,50.34
2022-08-20T10:24:04.201Z,51.09
2022-08-20T10:26:59.059Z,51.19
2022-08-20T10:29:49.544Z,51.74
2022-08-20T10:32:39.611Z,51.32
2022-08-20T10:35:30.155Z,51.78
2022-08-20T10:38:21.372Z,51.88
2022-08-20T10:41:11.994Z,51.62
2022-08-20T10:44:02.334Z,51.71
2022-08-20T10:46:56.985Z,51.53
2022-08-20T10:49:47.486Z,51.80
2022-08-20T10:52:38.110Z,52.19
2022-08-20T10:55:29.764Z,52.53
2022-08-20T10:58:20.183Z,52.66
2022-08-20T11:01:31.469Z,53.13
2022-08-20T11:04:25.210Z,53.43
2022-08-20T11:07:21.518Z,53.74
2022-08-20T11:10:34.537Z,53.91
2022-08-20T11:13:25.205Z,53.98
2022-08-20T11:16:15.616Z,54.19
2022-08-20T11:19:06.332Z,54.23
2022-08-20T11:21:59.688Z,54.17
2022-08-20T11:24:50.334Z,54.24
2022-08-20T11:27:42.799Z,54.23
2022-08-20T11:30:35.897Z,54.26
2022-08-20T11:33:26.661Z,54.20
2022-08-20T11:36:16.779Z,54.17
2022-08-20T11:39:08.110Z,53.96
2022-08-20T11:41:58.203Z,54.04
2022-08-20T11:44:48.559Z,54.06
2022-08-20T11:47:39.130Z,54.15
2022-08-20T11:50:30.336Z,54.33
2022-08-20T11:53:20.577Z,54.41
2022-08-20T11:56:16.549Z,54.75
2022-08-20T11:59:06.748Z,55.45
2022-08-20T12:02:08.965Z,56.07
2022-08-20T12:05:01.927Z,56.17
2022-08-20T12:07:52.888Z,57.02
2022-08-20T12:10:45.580Z,56.94
2022-08-20T12:13:47.826Z,56.90
2022-08-20T12:16:40.012Z,57.21
2022-08-20T12:19:30.819Z,58.05
2022-08-20T12:22:25.251Z,58.54
2022-08-20T12:25:16.158Z,60.64
2022-08-20T12:28:12.654Z,60.26
2022-08-20T12:31:03.625Z,61.55
2022-08-20T12:33:54.102Z,62.02
2022-08-20T12:36:44.987Z,62.02
2022-08-20T12:39:36.356Z,61.84
2022-08-20T12:42:27.258Z,62.45
2022-08-20T12:45:18.179Z,63.08
2022-08-20T12:48:13.487Z,62.96
2022-08-20T12:51:03.605Z,62.48
2022-08-20T12:53:54.556Z,62.03
2022-08-20T12:56:48.491Z,62.29
2022-08-20T12:59:38.669Z,61.91
2022-08-20T13:02:29.645Z,60.93
2022-08-20T13:05:20.288Z,60.24
2022-08-20T13:08:11.986Z,59.71
2022-08-20T13:11:03.169Z,60.59
2022-08-20T13:13:56.244Z,59.72
2022-08-20T13:16:47.214Z,58.72
2022-08-20T13:19:46.057Z,58.25
2022-08-20T13:22:36.043Z,58.94
2022-08-20T13:25:26.446Z,58.20
2022-08-20T13:28:17.174Z,58.18
2022-08-20T13:31:12.439Z,58.99
2022-08-20T13:34:03.655Z,58.83
2022-08-20T13:36:56.187Z,58.57
2022-08-20T13:39:47.071Z,59.45
2022-08-20T13:42:37.411Z,60.03
2022-08-20T13:45:28.560Z,60.21
2022-08-20T13:48:18.877Z,59.57
2022-08-20T13:51:09.578Z,58.96
2022-08-20T13:53:59.609Z,58.86
2022-08-20T13:56:50.114Z,59.42
2022-08-20T13:59:42.751Z,59.48
2022-08-20T14:02:32.877Z,59.68
2022-08-20T14:05:23.034Z,59.65
2022-08-20T14:08:15.033Z,59.29
2022-08-20T14:11:05.630Z,58.00
2022-08-20T14:13:58.201Z,57.77
2022-08-20T14:16:48.362Z,57.08
2022-08-20T14:19:40.376Z,57.55
2022-08-20T14:22:30.337Z,58.80
2022-08-20T14:25:23.374Z,57.25
2022-08-20T14:28:15.065Z,57.48
2022-08-20T14:31:08.272Z,57.27
2022-08-20T14:33:58.313Z,55.82
2022-08-20T14:36:51.162Z,55.26
2022-08-20T14:39:45.014Z,56.06
2022-08-20T14:42:35.592Z,56.18
2022-08-20T14:45:25.883Z,56.35
2022-08-20T14:48:16.612Z,53.04
2022-08-20T14:51:09.839Z,53.39
2022-08-20T14:54:00.115Z,53.32
2022-08-20T14:56:52.046Z,53.41
2022-08-20T14:59:42.600Z,54.18
2022-08-20T15:02:34.200Z,53.31
2022-08-20T15:05:24.602Z,53.51
2022-08-20T15:08:15.083Z,51.60
2022-08-20T15:11:07.649Z,53.59
2022-08-20T15:13:58.054Z,53.61
2022-08-20T15:16:48.630Z,53.92
2022-08-20T15:19:39.027Z,53.81
2022-08-20T15:22:29.235Z,52.47
2022-08-20T15:25:23.078Z,54.27
2022-08-20T15:28:12.916Z,54.29
2022-08-20T15:31:02.692Z,53.91
2022-08-20T15:33:54.988Z,53.79
2022-08-20T15:36:45.294Z,53.17
2022-08-20T15:39:35.529Z,54.25
2022-08-20T15:42:25.988Z,53.49
2022-08-20T15:45:21.834Z,54.20
2022-08-20T15:48:16.733Z,55.68
2022-08-20T15:51:28.760Z,55.53
2022-08-20T15:54:24.271Z,56.12
2022-08-20T15:57:27.529Z,55.66
2022-08-20T16:00:20.093Z,57.43
2022-08-20T16:03:33.425Z,57.66
2022-08-20T16:06:29.279Z,54.77
2022-08-20T16:09:39.503Z,55.13
2022-08-20T16:12:38.163Z,55.61
2022-08-20T16:15:31.341Z,52.44
2022-08-20T16:18:25.771Z,53.74
2022-08-20T16:21:20.387Z,52.94
2022-08-20T16:24:13.921Z,52.55
2022-08-20T16:27:16.034Z,52.99
2022-08-20T16:30:11.922Z,53.63
2022-08-20T16:33:07.486Z,53.84
2022-08-20T16:36:02.950Z,53.38
2022-08-20T16:38:59.646Z,53.48
2022-08-20T16:41:53.141Z,53.58
2022-08-20T16:44:48.666Z,54.29
2022-08-20T16:47:41.409Z,54.61
2022-08-20T16:50:35.469Z,54.22
2022-08-20T16:53:27.809Z,55.08
2022-08-20T16:56:31.537Z,55.40
2022-08-20T16:59:26.591Z,55.40
2022-08-20T17:02:22.578Z,54.66
2022-08-20T17:05:13.157Z,54.46
2022-08-20T17:08:07.170Z,55.03
2022-08-20T17:11:01.825Z,55.48
2022-08-20T17:14:02.594Z,55.36
2022-08-20T17:16:55.377Z,54.16
2022-08-20T17:19:55.974Z,54.44
2022-08-20T17:22:50.630Z,55.28
2022-08-20T17:25:41.766Z,55.69
2022-08-20T17:28:35.462Z,55.50
2022-08-20T17:31:38.797Z,54.83
2022-08-20T17:34:32.729Z,54.95
2022-08-20T17:37:26.269Z,55.45
2022-08-20T17:40:19.755Z,56.23
2022-08-20T17:43:11.475Z,55.90
2022-08-20T17:46:04.398Z,55.88
2022-08-20T17:48:58.544Z,55.88
2022-08-20T17:51:51.229Z,55.35
2022-08-20T17:54:45.432Z,55.09
2022-08-20T17:57:40.918Z,55.41
2022-08-20T18:00:31.620Z,55.39
2022-08-20T18:03:25.789Z,55.36
2022-08-20T18:06:30.336Z,55.23
2022-08-20T18:09:29.603Z,55.25
2022-08-20T18:12:34.298Z,55.40
2022-08-20T18:15:28.599Z,55.43
2022-08-20T18:18:30.301Z,55.50
2022-08-20T18:21:43.334Z,55.76
2022-08-20T18:24:42.507Z,55.85
2022-08-20T18:27:39.556Z,55.93
2022-08-20T18:30:29.413Z,55.85
2022-08-20T18:33:29.902Z,55.86
2022-08-20T18:36:28.185Z,55.87
2022-08-20T18:39:28.864Z,55.63
2022-08-20T18:42:32.085Z,55.08
2022-08-20T18:45:33.853Z,54.08
2022-08-20T18:48:26.399Z,53.28
2022-08-20T18:51:16.437Z,51.72
2022-08-20T18:54:07.486Z,50.78
2022-08-20T18:57:08.621Z,50.03
2022-08-20T19:00:05.366Z,49.83
2022-08-20T19:03:03.683Z,49.96
2022-08-20T19:06:18.207Z,49.06
2022-08-20T19:09:19.813Z,48.83
2022-08-20T19:12:32.755Z,48.85
2022-08-20T19:15:25.172Z,48.61
2022-08-20T19:18:22.929Z,48.49
2022-08-20T19:21:16.305Z,48.46
2022-08-20T19:24:09.648Z,47.95
2022-08-20T19:27:02.757Z,47.78
2022-08-20T19:29:56.718Z,47.98
2022-08-20T19:32:54.443Z,47.96
2022-08-20T19:35:45.633Z,47.46
2022-08-20T19:38:36.044Z,47.46
2022-08-20T19:41:31.707Z,47.59
2022-08-20T19:44:33.489Z,47.43
2022-08-20T19:47:32.270Z,47.35
2022-08-20T19:50:30.929Z,47.01
2022-08-20T19:53:30.534Z,46.87
2022-08-20T19:56:24.372Z,47.21
2022-08-20T19:59:22.274Z,47.32
2022-08-20T20:02:20.621Z,47.28
2022-08-20T20:05:13.229Z,47.54
2022-08-20T20:08:06.343Z,47.46
2022-08-20T20:11:00.510Z,47.29
2022-08-20T20:13:51.567Z,47.25
2022-08-20T20:16:43.526Z,47.14
2022-08-20T20:19:47.864Z,47.25
2022-08-20T20:22:52.190Z,47.28
2022-08-20T20:25:45.519Z,47.05
2022-08-20T20:28:46.895Z,46.92
2022-08-20T20:31:52.456Z,46.95
2022-08-20T20:34:55.626Z,46.74
2022-08-20T20:37:57.678Z,46.82
2022-08-20T20:41:00.788Z,46.69
2022-08-20T20:44:02.664Z,46.81
2022-08-20T20:47:00.416Z,46.68
2022-08-20T20:49:57.319Z,46.60
2022-08-20T20:52:56.177Z,46.70
2022-08-20T20:56:00.290Z,46.37
2022-08-20T20:58:54.418Z,46.44
2022-08-20T21:01:49.921Z,46.84
2022-08-20T21:04:42.800Z,46.71
2022-08-20T21:07:33.901Z,46.63
2022-08-20T21:10:30.395Z,46.18
2022-08-20T21:13:22.506Z,46.08
2022-08-20T21:16:13.075Z,45.95
2022-08-20T21:19:05.973Z,45.71
2022-08-20T21:21:57.057Z,45.73
2022-08-20T21:24:48.674Z,45.80
2022-08-20T21:27:53.755Z,45.74
2022-08-20T21:30:46.143Z,45.65
2022-08-20T21:33:39.353Z,45.54
2022-08-20T21:36:29.692Z,45.44
2022-08-20T21:39:20.053Z,45.33
2022-08-20T21:42:22.975Z,45.11
2022-08-20T21:45:20.578Z,45.03
2022-08-20T21:48:11.740Z,45.10
2022-08-20T21:51:02.500Z,45.19
2022-08-20T21:53:52.719Z,45.12
2022-08-20T21:56:44.313Z,45.13
2022-08-20T21:59:37.393Z,45.13
2022-08-20T22:02:28.602Z,45.08
2022-08-20T22:05:19.342Z,45.13
2022-08-20T22:08:09.266Z,45.01
2022-08-20T22:11:00.542Z,45.20
2022-08-20T22:13:50.728Z,45.22
2022-08-20T22:16:42.923Z,45.28
2022-08-20T22:19:35.970Z,45.43
2022-08-20T22:22:26.268Z,45.53
2022-08-20T22:25:16.363Z,45.76
2022-08-20T22:28:06.275Z,46.01
2022-08-20T22:30:56.279Z,46.13
2022-08-20T22:33:46.139Z,46.17
2022-08-20T22:36:36.378Z,46.13
2022-08-20T22:39:26.893Z,46.30
2022-08-20T22:42:17.013Z,46.36
2022-08-20T22:45:11.536Z,46.43
2022-08-20T22:48:07.792Z,46.47
2022-08-20T22:50:59.119Z,46.55
2022-08-20T22:53:50.303Z,46.56
2022-08-20T22:56:42.848Z,46.68
2022-08-20T22:59:34.433Z,46.69
2022-08-20T23:02:36.373Z,46.68
2022-08-20T23:05:28.706Z,46.71
2022-08-20T23:08:19.234Z,46.69
2022-08-20T23:11:09.635Z,46.53
2022-08-20T23:13:59.880Z,46.53
2022-08-20T23:16:58.136Z,46.40
2022-08-20T23:19:51.283Z,46.26
2022-08-20T23:22:42.274Z,46.39
2022-08-20T23:25:33.518Z,46.35
2022-08-20T23:28:26.518Z,46.32
2022-08-20T23:31:16.946Z,46.45
2022-08-20T23:34:08.963Z,46.48
2022-08-20T23:37:01.345Z,46.51
2022-08-20T23:39:52.167Z,46.55
2022-08-20T23:42:42.733Z,46.44
2022-08-20T23:45:33.678Z,46.43
2022-08-20T23:48:24.916Z,46.49
2022-08-20T23:51:15.815Z,46.46
2022-08-20T23:54:06.887Z,46.41
2022-08-20T23:56:57.645Z,46.36
2022-08-20T23:59:48.765Z,46.42
